Latest Weather Observations for McCluer Island

IDD60801

Issued at 6:01 pm CST Friday 20 October 2017 (issued every 30 minutes, with the page automatically refreshed every 10 minutes)

About weather observations | Map of weather stations | Latest weather observations for NT | Other Formats
Station Details ID: 014274 Name: MCCLUER ISLAND Lat: -11.05 Lon: 132.98 Height: 1.4 m
Data from the previous 72 hours. | See also: Recent months at McCluer Island
Date/Time
CST
Temp
°C
App
Temp
°C
Dew
Point
°C
Rel
Hum
%
Delta-T
°C
Wind Press
QNH
hPa
Press
MSL
hPa
Rain since
9am
mm
Dir  Spd
km/h
Gust
km/h
Spd
kts
Gust
kts
20/06:00pm 29.0 29.5 23.9 74 3.5 ENE 28 32 15 17 1009.4 1009.4 0.0
20/05:30pm 29.0 29.7 23.7 73 3.7 NE 26 32 14 17 1009.4 - 0.0
20/05:00pm 29.6 30.8 25.1 77 3.2 ENE 28 32 15 17 1009.5 - 0.0
20/04:30pm 29.3 30.7 24.2 74 3.5 ENE 24 30 13 16 1009.4 - 0.0
20/04:00pm 29.3 31.0 24.0 73 3.7 ENE 22 26 12 14 1009.7 - 0.0
20/03:30pm 29.6 31.8 24.2 73 3.8 ENE 20 24 11 13 1010.0 - 0.0
20/03:00pm 29.6 32.0 24.2 73 3.8 ENE 19 22 10 12 1010.4 1010.4 0.0
20/02:30pm 29.4 31.8 23.6 71 4.0 ENE 17 20 9 11 1010.6 - 0.0
20/02:00pm 29.4 31.2 23.3 69 4.2 ENE 19 20 10 11 1011.1 - 0.0
20/01:30pm 30.2 32.8 23.9 69 4.4 E 17 20 9 11 1011.4 - 0.0
20/01:00pm 30.1 32.6 23.8 69 4.4 E 17 20 9 11 1011.9 - 0.0
20/12:30pm 29.9 32.0 23.1 67 4.7 E 17 20 9 11 1012.3 - 0.0
20/12:00pm 29.6 31.5 22.8 67 4.6 E 17 22 9 12 1012.5 1012.5 0.0
20/11:30am 30.4 33.3 23.8 68 4.6 E 15 19 8 10 1012.7 - 0.0
20/11:00am 29.8 33.5 22.5 65 5.0 SSW 7 11 4 6 1012.7 - 0.0
20/10:30am 30.2 33.1 23.1 65 4.9 SSW 13 17 7 9 1012.6 - 0.0
20/10:00am 30.6 33.2 22.7 62 5.4 SSW 13 17 7 9 1012.5 - 0.0
20/09:30am 30.6 33.2 22.7 62 5.4 SSW 13 17 7 9 1012.6 - 0.0
20/09:00am 30.0 33.1 22.2 63 5.3 S 9 13 5 7 1012.5 1012.5 0.0
20/08:30am 29.8 33.8 22.8 66 4.8 E 6 7 3 4 1012.3 - 0.0
20/08:00am 29.3 33.5 22.5 67 4.6 ESE 4 7 2 4 1012.1 - 0.0
20/07:30am 28.4 32.9 22.2 69 4.2 SE 2 7 1 4 1011.8 - 0.0
20/07:00am 26.8 32.1 23.1 80 2.5 CALM 0 0 0 0 1011.5 - 0.0
20/06:30am 26.5 31.4 22.3 78 2.8 CALM 0 0 0 0 1011.1 - 0.0
20/06:00am 26.6 31.4 22.2 77 3.0 CALM 0 0 0 0 1010.8 1010.8 0.0
20/05:30am 26.6 31.3 22.0 76 3.1 CALM 0 0 0 0 1010.4 - 0.0
20/05:00am 26.0 30.8 22.1 79 2.6 CALM 0 0 0 0 1010.0 - 0.0
20/04:30am 26.4 30.6 22.5 79 2.6 ESE 4 7 2 4 1009.8 - 0.0
20/04:00am 26.3 29.9 22.4 79 2.6 ESE 7 9 4 5 1009.8 - 0.0
20/03:30am 27.8 31.6 22.7 74 3.5 NE 7 9 4 5 1009.8 - 0.0
20/03:00am 28.0 32.2 23.4 76 3.2 ENE 7 11 4 6 1009.8 1009.8 0.0
20/02:30am 28.1 31.3 23.0 74 3.5 NE 11 13 6 7 1009.9 - 0.0
20/02:00am 28.1 31.7 23.7 77 3.0 NE 11 15 6 8 1009.9 - 0.0
20/01:30am 28.2 31.0 23.6 76 3.2 NE 15 19 8 10 1009.8 - 0.0
20/01:00am 28.4 30.5 23.8 76 3.2 NE 19 22 10 12 1010.1 - 0.0
20/12:30am 28.5 29.7 23.9 76 3.2 NE 24 28 13 15 1010.2 - 0.0
20/12:00am 28.7 30.0 24.0 76 3.3 NE 24 28 13 15 1010.5 1010.5 0.0
 
Date/Time
CST
Temp
°C
App
Temp
°C
Dew
Point
°C
Rel
Hum
%
Delta-T
°C
Wind Press
QNH
hPa
Press
MSL
hPa
Rain since
9am
mm
Dir  Spd
km/h
Gust
km/h
Spd
kts
Gust
kts
19/11:30pm 28.8 29.7 23.9 75 3.4 NE 26 32 14 17 1010.6 - 0.0
19/11:00pm 29.0 29.2 24.1 75 3.4 NE 30 33 16 18 1010.8 - 0.0
19/10:30pm 28.8 29.6 24.4 77 3.1 NE 28 32 15 17 1011.0 - 0.0
19/10:00pm 29.2 30.0 24.5 76 3.3 NE 28 32 15 17 1010.8 - 0.0
19/09:30pm 28.9 29.4 24.0 75 3.4 NE 28 32 15 17 1010.2 - 0.0
19/09:00pm 29.2 30.3 24.3 75 3.4 NE 26 30 14 16 1009.9 1009.9 0.0
19/08:30pm 29.1 30.4 24.0 74 3.5 NE 24 28 13 15 1009.5 - 0.0
19/08:00pm 29.4 30.9 24.3 74 3.5 NE 24 28 13 15 1009.2 - 0.0
19/07:30pm 29.2 31.3 24.1 74 3.5 NE 20 26 11 14 1008.7 - 0.0
19/07:00pm 29.0 30.9 23.4 72 3.8 NE 19 20 10 11 1008.5 - 0.0
19/06:30pm 29.3 32.7 24.0 73 3.7 NE 13 17 7 9 1008.2 - 0.0
19/06:00pm 29.0 31.8 23.0 70 4.1 ENE 13 15 7 8 1007.7 1007.7 0.0
19/05:30pm 29.1 32.0 23.1 70 4.1 ENE 13 17 7 9 1007.4 - 0.0
19/05:00pm 29.6 32.9 23.8 71 4.0 ENE 13 17 7 9 1007.5 - 0.0
19/04:30pm 29.6 33.0 24.0 72 3.9 E 13 15 7 8 1007.5 - 0.0
19/04:00pm 29.6 33.4 24.0 72 3.9 ENE 11 13 6 7 1007.4 - 0.0
19/03:30pm 29.9 33.8 24.8 74 3.6 ENE 13 15 7 8 1007.5 - 0.0
19/03:00pm 29.7 33.9 24.1 72 3.9 NE 9 11 5 6 1007.5 1007.5 0.0
19/02:30pm 29.6 33.5 24.2 73 3.8 NE 11 13 6 7 1007.7 - 0.0
19/02:00pm 29.7 33.4 23.9 71 4.0 ENE 11 13 6 7 1008.1 - 0.0
19/01:30pm 29.7 33.6 24.3 73 3.8 ENE 11 15 6 8 1008.4 - 0.0
19/01:00pm 29.8 33.3 24.9 75 3.4 ENE 15 17 8 9 1008.8 - 0.0
19/12:30pm 30.0 33.7 25.1 75 3.4 NE 15 17 8 9 1009.3 - 0.0
19/12:00pm 29.7 33.6 24.8 75 3.4 NE 13 17 7 9 1009.6 1009.6 0.0
19/11:30am 29.7 33.9 24.8 75 3.4 ENE 11 15 6 8 1010.0 - 0.0
19/11:00am 29.7 33.3 24.3 73 3.8 NE 13 15 7 8 1010.3 - 0.0
19/10:30am 29.0 31.8 23.7 73 3.7 NE 15 17 8 9 1010.4 - 0.0
19/10:00am 28.8 31.7 23.9 75 3.4 NE 15 19 8 10 1010.5 - 0.0
19/09:30am 29.2 32.8 24.3 75 3.4 NNE 13 15 7 8 1010.4 - 0.0
19/09:00am 29.0 32.4 24.1 75 3.4 NE 13 17 7 9 1010.3 1010.3 0.0
19/08:30am 28.7 31.3 24.0 76 3.3 NE 17 19 9 10 1010.2 - 0.0
19/08:00am 28.7 31.2 24.5 78 2.9 NE 19 20 10 11 1010.1 - 0.0
19/07:30am 28.5 30.8 24.1 77 3.0 NE 19 22 10 12 1009.8 - 0.0
19/07:00am 29.1 31.9 25.3 80 2.7 NE 20 22 11 12 1009.5 - 0.0
19/06:30am 28.7 31.4 25.1 81 2.5 NE 20 22 11 12 1009.2 - 0.0
19/06:00am 28.6 31.8 25.6 84 2.1 NE 19 20 10 11 1008.7 1008.7 0.0
19/05:30am 28.3 31.0 25.1 83 2.2 NE 20 24 11 13 1008.5 - 0.0
19/05:00am 28.3 30.5 24.9 82 2.4 ENE 22 26 12 14 1008.1 - 0.0
19/04:30am 28.3 30.5 24.9 82 2.4 NE 22 26 12 14 1007.9 - 0.0
19/04:00am 28.4 31.1 25.6 85 2.0 NNE 22 26 12 14 1007.6 - 0.0
19/03:30am 28.3 30.1 25.5 85 2.0 NE 26 30 14 16 1007.2 - 0.0
19/03:00am 28.5 30.8 25.7 85 2.0 ENE 24 28 13 15 1007.2 1007.2 0.0
19/02:30am 28.5 30.7 25.5 84 2.1 ENE 24 28 13 15 1007.6 - 0.0
19/02:00am 28.7 31.0 25.7 84 2.1 E 24 28 13 15 1008.0 - 0.0
19/01:30am 28.4 29.8 25.4 84 2.1 E 28 32 15 17 1008.3 - 0.0
19/01:00am 29.0 31.6 26.6 87 1.7 ENE 26 32 14 17 1008.6 - 0.0
19/12:30am 28.9 30.5 26.3 86 1.9 NE 30 35 16 19 1008.5 - 0.0
19/12:00am 28.7 30.8 25.9 85 2.0 NE 26 32 14 17 1008.3 1008.3 0.0
 
Date/Time
CST
Temp
°C
App
Temp
°C
Dew
Point
°C
Rel
Hum
%
Delta-T
°C
Wind Press
QNH
hPa
Press
MSL
hPa
Rain since
9am
mm
Dir  Spd
km/h
Gust
km/h
Spd
kts
Gust
kts
18/11:30pm 29.2 32.4 25.6 81 2.5 NNE 19 20 10 11 1008.6 - 0.0
18/11:00pm 29.1 32.1 25.3 80 2.7 NE 19 22 10 12 1009.1 - 0.0
18/10:30pm 29.1 32.8 25.1 79 2.8 NE 15 17 8 9 1009.5 - 0.0
18/10:00pm 29.3 33.2 25.5 80 2.7 NNE 15 17 8 9 1009.0 - 0.0
18/09:30pm 29.0 32.9 24.8 78 2.9 NNE 13 15 7 8 1009.0 - 0.0
18/09:00pm 29.1 32.8 25.1 79 2.8 NNE 15 17 8 9 1008.6 1008.6 0.0
18/08:30pm 29.1 32.4 25.1 79 2.8 NNE 17 20 9 11 1008.2 - 0.0
18/08:00pm 29.2 32.7 25.4 80 2.7 NNE 17 19 9 10 1007.9 - 0.0
18/07:30pm 28.9 32.0 25.7 83 2.3 NNE 20 24 11 13 1007.4 - 0.0
18/07:00pm 28.9 31.7 25.3 81 2.5 NE 20 24 11 13 1007.3 - 0.0
18/06:30pm 29.2 31.7 25.4 80 2.7 NNE 22 24 12 13 1006.9 - 0.0
18/06:00pm 28.9 31.6 25.1 80 2.7 NNE 20 22 11 12 1006.5 1006.5 0.0
18/05:30pm 29.2 33.1 25.4 80 2.7 NNE 15 19 8 10 1006.5 - 0.0
18/05:00pm 29.3 33.1 25.3 79 2.8 NNE 15 17 8 9 1006.2 - 0.0
18/04:30pm 29.2 32.8 25.0 78 2.9 NNE 15 17 8 9 1006.0 - 0.0
18/04:00pm 29.2 32.7 25.4 80 2.7 NE 17 19 9 10 1006.0 - 0.0
18/03:30pm 29.0 32.0 25.2 80 2.7 NE 19 20 10 11 1006.3 - 0.0
18/03:00pm 29.9 34.1 25.9 79 2.8 ENE 15 17 8 9 1006.8 1006.8 0.0
18/02:30pm 29.6 33.3 25.1 77 3.2 NE 15 19 8 10 1006.9 - 0.0
18/02:00pm 30.3 34.5 25.4 75 3.5 ENE 13 17 7 9 1007.3 - 0.0
18/01:30pm 30.6 34.2 25.0 72 3.9 E 15 19 8 10 1007.8 - 0.0
18/01:00pm 30.8 33.8 24.7 70 4.3 E 17 20 9 11 1008.1 - 0.0
18/12:30pm 30.6 33.9 24.5 70 4.3 E 15 19 8 10 1008.4 - 0.0
18/12:00pm 30.6 32.7 23.8 67 4.7 E 19 22 10 12 1008.7 1008.7 0.0
18/11:30am 30.6 32.5 23.5 66 4.9 ESE 19 24 10 13 1009.2 - 0.0
18/11:00am 31.2 35.4 24.8 69 4.5 SE 11 17 6 9 1009.5 - 0.0
18/10:30am 30.7 35.1 25.1 72 3.9 SW 11 15 6 8 1009.8 - 0.0
18/10:00am 29.9 34.3 25.0 75 3.4 WSW 11 13 6 7 1010.1 - 0.0
18/09:30am 28.9 32.7 24.7 78 2.9 WSW 13 17 7 9 1010.1 - 0.0
18/09:00am 28.6 31.7 24.2 77 3.1 SW 15 24 8 13 1010.3 1010.3 11.0
18/08:30am 29.9 34.2 24.3 72 3.9 ESE 9 11 5 6 1010.1 - 11.0
18/08:00am 29.2 33.1 24.3 75 3.4 E 11 13 6 7 1009.8 - 10.8
18/07:30am 28.9 33.1 24.7 78 2.9 E 11 13 6 7 1009.6 - 10.8
18/07:00am 28.1 32.3 24.7 82 2.4 E 11 15 6 8 1009.1 - 10.8
18/06:30am 26.6 30.8 24.1 86 1.7 E 9 9 5 5 1008.7 - 10.8
18/06:00am 26.4 30.5 23.3 83 2.1 ESE 7 9 4 5 1008.4 1008.4 10.8
18/05:30am 26.7 30.6 23.0 80 2.5 ESE 7 9 4 5 1007.9 - 10.8
18/05:00am 27.5 31.4 22.9 76 3.1 E 7 11 4 6 1007.8 - 10.8
18/04:30am 28.1 31.7 23.7 77 3.0 E 11 13 6 7 1007.6 - 10.8
18/04:00am 28.2 32.2 24.4 80 2.6 E 11 13 6 7 1007.4 - 10.8
18/03:30am 28.1 31.3 24.3 80 2.6 E 15 19 8 10 1007.2 - 10.8
18/03:00am 28.2 31.7 24.2 79 2.8 NE 13 17 7 9 1007.0 1007.0 10.8
18/02:30am 27.7 32.9 23.5 78 2.9 NNW 2 9 1 5 1007.1 - 10.8
18/02:00am 27.3 31.0 23.3 79 2.7 WNW 9 11 5 6 1007.5 - 10.8
18/01:30am 26.3 31.7 23.2 83 2.1 CALM 0 0 0 0 1007.7 - 10.8
18/01:00am 26.5 31.7 22.8 80 2.5 CALM 0 0 0 0 1007.9 - 10.8
18/12:30am 27.5 31.5 23.1 77 3.0 NW 7 9 4 5 1008.0 - 10.8
18/12:00am 27.7 31.0 23.9 80 2.6 NNW 13 17 7 9 1007.9 1007.9 10.8
 
Date/Time
CST
Temp
°C
App
Temp
°C
Dew
Point
°C
Rel
Hum
%
Delta-T
°C
Wind Press
QNH
hPa
Press
MSL
hPa
Rain since
9am
mm
Dir  Spd
km/h
Gust
km/h
Spd
kts
Gust
kts
17/11:30pm 28.1 30.8 23.5 76 3.2 N 15 19 8 10 1008.1 - 10.8
17/11:00pm 26.8 30.6 22.4 77 3.0 WNW 6 9 3 5 1007.9 - 10.8
17/10:30pm 27.2 29.7 23.2 79 2.7 NE 15 20 8 11 1008.1 - 10.8
17/10:00pm 26.9 27.7 23.8 83 2.1 NE 26 32 14 17 1007.5 - 10.8
17/09:30pm 26.1 24.3 24.3 90 1.2 NE 41 48 22 26 1006.9 - 10.8
17/09:21pm 25.5 22.8 24.3 93 0.8 ENE 46 48 25 26 1007.4 - 10.8
17/09:00pm 24.3 24.6 22.9 92 0.9 SE 26 41 14 22 1009.1 1009.1 5.8
17/08:45pm 25.5 23.5 22.6 84 2.0 SE 37 50 20 27 1007.8 - 0.2
17/08:35pm 26.6 25.8 22.4 78 2.8 E 30 41 16 22 1007.7 - 0.2
17/08:30pm 29.0 33.6 25.4 81 2.5 NNE 11 15 6 8 1007.5 - 0.2
17/08:00pm 28.8 32.8 25.6 83 2.3 N 15 20 8 11 1006.8 - 0.2
17/07:30pm 28.9 32.1 25.5 82 2.4 N 19 20 10 11 1006.4 - 0.2
17/07:00pm 29.0 32.2 25.8 83 2.3 N 20 24 11 13 1006.3 - 0.2
17/06:30pm 29.0 31.7 25.6 82 2.4 N 22 26 12 14 1005.9 - 0.2

Other Formats:

Comma delimited format used in spreadsheet applications
http://www.bom.gov.au/fwo/IDD60801/IDD60801.94135.axf

JavaScript Object Notation format (JSON) in row-major order
http://www.bom.gov.au/fwo/IDD60801/IDD60801.94135.json